ראשי / חיפושים אחרונים

חיפושים אחרונים

לוחית
סוג רכב
דגם
שנה
תאריך חיפוש
שעת חיפוש
4700971 מזדה יפן MAZDA 3 2011 02/09/2026 07:39:03
52071901 יונדאי קוריאה הדרומית I25 2018 02/09/2026 07:39:02
1204439 איווקו איטליה - 2016 02/09/2026 07:39:01
32282501 קואנג יאנג סין - 2019 02/09/2026 07:38:59
1179466 שברולט קוריאה הדרומית AVEO 2008 02/09/2026 07:38:58
2939671 מזדה יפן MAZDA 3 2010 02/09/2026 07:38:58
4225413 שברולט ארהב" CRUZE 2012 02/09/2026 07:38:57
17564101 יונדאי צ'כיה TUCSON 2018 02/09/2026 07:38:56
3825171 מזדה יפן MAZDA 2 2010 02/09/2026 07:38:54
41645804 ג'אקו סין JAECOO 5 BEV 2025 02/09/2026 07:38:53
55553302 מ.ג סין MG4 2023 02/09/2026 07:38:53
4187374 טויוטה טורקיה AURIS 2011 02/09/2026 07:38:53
65879704 אומודה סין OMODA 7 PHEV 2026 02/09/2026 07:38:52
9144074 ב מ וו גרמניה - 2012 02/09/2026 07:38:51
3012652 קיה קוריאה הדרומית PICANTO 2013 02/09/2026 07:38:50
6491730 טויוטה בריטניה AURIS 2014 02/09/2026 07:38:49
3709719 מזדה יפן - 1995 02/09/2026 07:38:48
8453053 סוזוקי הונגריה SPLASH 2013 02/09/2026 07:38:47
7954776 פולקסווגן ספרד POLO 2012 02/09/2026 07:38:46
4214738 פולקסווגן גרמניה GOLF 2016 02/09/2026 07:38:45
6500759 אופל ספרד CORSA-C 2005 02/09/2026 07:38:44
9144074 ב מ וו גרמניה - 2012 02/09/2026 07:38:44
8477580 פיאט איטליה - 2017 02/09/2026 07:38:43
5911816 ב מ וו אוסטריה X3 2.5SI 2007 02/09/2026 07:38:43
1707075 סובארו יפן XV 2012 02/09/2026 07:38:40
3340166 מיצובישי יפן PAJERO 2008 02/09/2026 07:38:38
13287604 סקודה צ'כיה KAROQ FL 2024 02/09/2026 07:38:33
92302401 פורד ארהב" - 2020 02/09/2026 07:38:32
3331933 רנו טורקיה FLUENCE 2016 02/09/2026 07:38:30
68541803 הייגר סין - 2024 02/09/2026 07:38:29
55553302 מ.ג סין MG4 2023 02/09/2026 07:38:26
4744339 סיטרואן ספרד BERLINGO 2016 02/09/2026 07:38:24
48944203 סיטרואן ספרד BERLINGO 2023 02/09/2026 07:38:23
80728304 צ'רי סין TIGGO 7 HEV 2026 02/09/2026 07:38:20
4250025 סיטרואן צרפת D9.1 XEIFER XZ דיזל 1996 02/09/2026 07:38:18
4188458 פיאט איטליה PUNT0 60 2005 02/09/2026 07:38:15
39687802 יונדאי קוריאה הדרומית IONIQ HYBRID 2021 02/09/2026 07:38:13
26529302 קוואסאקי תאילנ - 2020 02/09/2026 07:38:13
2322421 טויוטה יפן - 2016 02/09/2026 07:38:11
4180764 טויוטה יפן COROLLA 2008 02/09/2026 07:38:10
4721154 אאודי ספרד Q3 2015 02/09/2026 07:38:08
4216422 סקודה צ'כיה - 2016 02/09/2026 07:38:06
70432002 טויוטה טורקיה C-HR HYBRID 2021 02/09/2026 07:38:05
60045401 ב מ וו הולנד COUNTRYMAN COOP 2019 02/09/2026 07:37:59
3965233 קיה קוריאה הדרומית PICANTO 2015 02/09/2026 07:37:56
4230172 שברולט ארהב" TRAVERSE 2010 02/09/2026 07:37:56
70077001 קיה קוריאה הדרומית STONIC 2019 02/09/2026 07:37:53
48944203 סיטרואן ספרד BERLINGO 2023 02/09/2026 07:37:53
1015462 טויוטה טורקיה COROLLA 2007 02/09/2026 07:37:52
93059801 מרצדס גרמניה C200 D 2018 02/09/2026 07:37:52
1807311 מרצדס גרמניה B200 2013 02/09/2026 07:37:51
17772102 סקודה צ'כיה KODIAQ 2020 02/09/2026 07:37:50
6031037 מיצובישי יפן OUTLANDER 2016 02/09/2026 07:37:50
4889138 פולקסווגן גרמניה GOLF 2016 02/09/2026 07:37:48
71698203 מיצובישי יפן OUTLANDER 2024 02/09/2026 07:37:47
2418562 פולקסווגן פולין CARAVELLE 2007 02/09/2026 07:37:47
85888903 אאודי סלובקיה Q8 2024 02/09/2026 07:37:45
40100503 איסוזו יפן - 2023 02/09/2026 07:37:44
50578704 טויוטה תאילנד HILUX 2026 02/09/2026 07:37:43
6753978 יונדאי קוריאה הדרומית VELOSTER 2011 02/09/2026 07:37:42
26578803 פולקסווגן ספרד POLO 2023 02/09/2026 07:37:42
47065902 ניסאן יפן X-TRAIL 2021 02/09/2026 07:37:41
6336058 סוזוקי הונגריה SX4 CROSSOVER 2014 02/09/2026 07:37:41
4790031 יונדאי צ'כיה I30 2015 02/09/2026 07:37:40
50890802 קיה קוריאה הדרומית SORENTO 2021 02/09/2026 07:37:37
7530868 מזדה יפן MAZDA 3 2010 02/09/2026 07:37:36
4201470 מרוטי סוזוקי ALTO 2010 02/09/2026 07:37:36
48944203 סיטרואן ספרד BERLINGO 2023 02/09/2026 07:37:35
69541702 טסלה סין MODEL 3 2021 02/09/2026 07:37:35
2764170 טויוטה יפן PRIUS HYBRID 2009 02/09/2026 07:37:33
7984126 סקודה צ'כיה SUPERB FL 2021 02/09/2026 07:37:32
73922601 ב מ וו גרמניה 530E I PER 2019 02/09/2026 07:37:32
4664169 רנו צרפת KANGOO 2009 02/09/2026 07:37:32
64523704 ג'אקו סין JAECOO8 PHEV 2026 02/09/2026 07:37:31
39465602 יונדאי טורקיה I10 2021 02/09/2026 07:37:30
5023567 דייהטסו יפן .SIRION 2008 02/09/2026 07:37:29
1101117 הונדה יפן - 1996 02/09/2026 07:37:28
85322001 סאן יאנג סין - 2019 02/09/2026 07:37:27
72941702 הונדה איטליה - 2022 02/09/2026 07:37:27
1504670 סוזוקי-יפן - 2010 02/09/2026 07:37:27
18593603 ג'יפ ארהב" WRANGLER 2022 02/09/2026 07:37:26
9443573 פורשה גרמניה - 2011 02/09/2026 07:37:26
8765287 פורשה גרמניה 92A 2017 02/09/2026 07:37:25
5727870 הונדה יפן ACCORD 2010 02/09/2026 07:37:24
11989603 יונדאי טורקיה BAYON 2022 02/09/2026 07:37:24
4651116 סיטרואן צרפת BERLINGO X 1.9 1998 02/09/2026 07:37:23
404658 פיאט איטליה - 1976 02/09/2026 07:37:22
3106156 טויוטה יפן LAND CRUISER 2004 02/09/2026 07:37:21
19958103 יונדאי קוריאה הדרומית ELANTRA HEV 2023 02/09/2026 07:37:20
4655274 טויוטה יפן SPACE VERSO 2011 02/09/2026 07:37:18
1175070 פיאג'ו איטליה - 2009 02/09/2026 07:37:18
30669003 וולבו שבדיה - 2023 02/09/2026 07:37:08
4246923 מזדה יפן LANTIS 323 2000 02/09/2026 07:37:06
4236074 טויוטה יפן COROLLA 2011 02/09/2026 07:37:02
76443001 רנו ספרד CAPTUR 2019 02/09/2026 07:37:01
3347966 מיצובישי יפן PAJERO 2008 02/09/2026 07:37:01
46180601 טויוטה יפן RAV 4 HYBRID 2019 02/09/2026 07:37:00
9429457 מרכז הגרורים - 2004 02/09/2026 07:36:58
1144437 טויוטה תאילנד HILUX 2016 02/09/2026 07:36:56
9359381 טויוטה בריטניה AURIS HYBRID 2017 02/09/2026 07:36:56
66517702 טויוטה יפן RAV 4 HYBRID 2021 02/09/2026 07:36:55
1223674 יונדאי צ'כיה I30 2010 02/09/2026 07:36:53
3236275 שברולט ארהב" - 2011 02/09/2026 07:36:53
51916802 שברולט קוריאה הדרומית SPARK 2022 02/09/2026 07:36:48
46661801 טויוטה יפן RAV 4 HYBRID 2019 02/09/2026 07:36:45
4245419 מזדה יפן - 1996 02/09/2026 07:36:44
3751455 מיצובישי פורט' - 2017 02/09/2026 07:36:42
3400751 רנו צרפת KANGOO 2003 02/09/2026 07:36:40
9957633 מיצובישי תאילנד SPACE STAR 2015 02/09/2026 07:36:36
9460755 גאז רוסיה - 1969 02/09/2026 07:36:34
3794555 דימלרקריזלר-גר - 2017 02/09/2026 07:36:32
8038661 סקודה צ'כיה ROOMSTER 2008 02/09/2026 07:36:31
2681509 סקודה צ'כיה סקודה צ'כיה 5דלתות 1998 02/09/2026 07:36:28
1575875 סובארו יפן B4 2011 02/09/2026 07:36:24
6695932 מ א ן גרמניה - 2014 02/09/2026 07:36:23
60194403 רנו טורקיה MEGANE 2024 02/09/2026 07:36:21
1751676 ב מ וו בריטניה MINI COUPE 2013 02/09/2026 07:36:18
3403756 טויוטה יפן LAND-CRUISER 2004 02/09/2026 07:36:16
81146403 סקודה צ'כיה SCALA FL 2024 02/09/2026 07:36:15
1308810 טויוטה יפן COROLLA 2001 02/09/2026 07:36:15
8250273 מיצובישי יפן GRANDIS 2011 02/09/2026 07:36:14
4670563 מזדה יפן MAZDA 3 2008 02/09/2026 07:36:14
8045713 יונדאי טורקיה I20 2012 02/09/2026 07:36:13
1178050 טויוטה יפן YARIS 2002 02/09/2026 07:36:12
25384802 קיה סלובקיה SPORTAGE 2020 02/09/2026 07:36:09
77780803 יונדאי קוריאה הדרומית KONA HYBRID 2024 02/09/2026 07:36:08
3594167 סקודה צ'כיה ROOMSTER 2009 02/09/2026 07:36:07
4695464 רנו טורקיה MEGANE II 2008 02/09/2026 07:36:06
3787379 רנו טורקיה CLIO III 2012 02/09/2026 07:36:06
91944301 סקודה צ'כיה OCTAVIA 2013 02/09/2026 07:36:05
2516233 ניסאן הודו MICRA 2015 02/09/2026 07:36:05
1245911 יונדאי טורקיה I20 2013 02/09/2026 07:36:03
1131089 גיפ-ישראל - 1989 02/09/2026 07:36:02
1714963 טויוטה יפן LAND CRUISER 2008 02/09/2026 07:36:01
74813501 סקודה צ'כיה KAROQ 2019 02/09/2026 07:35:59
6107513 סקניה-הולנד - 2015 02/09/2026 07:35:58
2293738 אאודי גרמניה A4 2016 02/09/2026 07:35:57
82676503 טויוטה יפן COROLLA CROSS 2024 02/09/2026 07:35:54
15005904 טויוטה בריטניה COROLLA TS HSD 2024 02/09/2026 07:35:54
6350031 וולבו בלגיה XC60 T5 2015 02/09/2026 07:35:53
1167914 ניסאן בריטניה ALMERA 2006 02/09/2026 07:35:50
82821601 גרורי אמון - 2019 02/09/2026 07:35:50
53630304 ב מ וו ארהב" X6 XDRIVE40I 2025 02/09/2026 07:35:48
1570632 יונדאי טורקיה I10 2015 02/09/2026 07:35:47
1237738 סוזוקי הונגריה VITARA 2016 02/09/2026 07:35:46
3208923 סובארו יפן IMPREZA NEW 2003 02/09/2026 07:35:44
1038776 ב מ וו גרמניה 316I 2013 02/09/2026 07:35:44
9353963 מיצובישי יפן LANCER 2008 02/09/2026 07:35:42
1419038 פולקסווגן פולין CADDY GP 2015 02/09/2026 07:35:41
1885267 פולקסווגן מקסיקה JETTA 2008 02/09/2026 07:35:38
31850304 יונדאי קוריאה הדרומית KONA HYBRID 2025 02/09/2026 07:35:38
6408532 פיאט איטליה - 2014 02/09/2026 07:35:36
77291903 ב מ וו גרמניה 330E 2024 02/09/2026 07:35:35
7203711 מזדה יפן MAZDA 6 2014 02/09/2026 07:35:34
7221213 אופל גרמניה CORSA 2012 02/09/2026 07:35:32
1759034 מיצובישי יפן OUTLANDER 2015 02/09/2026 07:35:32
25757204 ב מ וו גרמניה I7 2025 02/09/2026 07:35:30
85774503 סיאט ספרד ARONA 2024 02/09/2026 07:35:29
18731004 ב מ וו סין COOPER SE 2025 02/09/2026 07:35:28
3368132 וינגולד-גרורים - 2015 02/09/2026 07:35:27
66517702 טויוטה יפן RAV 4 HYBRID 2021 02/09/2026 07:35:27
3603672 שברולט ארהב" MALIBU LT 2010 02/09/2026 07:35:25
17534202 מרכז הגרורים - 2020 02/09/2026 07:35:24
70968901 קיה סלובקיה SPORTAGE 2020 02/09/2026 07:35:24
9776461 ב מ וו ארהב" - 2008 02/09/2026 07:35:18
11117203 טויוטה קנדה RAV4 2022 02/09/2026 07:35:17
1418333 ניסאן בריטניה JUKE 2015 02/09/2026 07:35:16
60983503 פולקסווגן פולי - 2024 02/09/2026 07:35:15
8175476 סקודה צ'כיה OCTAVIA 2011 02/09/2026 07:35:14
7401053 סיאט ספרד IBIZA 2015 02/09/2026 07:35:14
24088203 סובארו יפן FORESTER 2023 02/09/2026 07:35:14
6328067 סובארו יפן FORESTER 2010 02/09/2026 07:35:13
54756003 קיה קוריאה הדרומית CARNIVAL 2023 02/09/2026 07:35:11
8558058 קוואסאקי יפן - 2004 02/09/2026 07:35:09
5872603 סובארו יפן - 1992 02/09/2026 07:35:08
8477270 אאודי גרמניה Q5 2010 02/09/2026 07:35:07
3289872 איווקו איטליה - 2011 02/09/2026 07:35:07
8989570 סקודה צ'כיה FABIA 2010 02/09/2026 07:35:06
8044639 מיצובישי יפן OUTLANDER 2016 02/09/2026 07:35:05
5436681 יונדאי קוריאה הדרומית IONIQ HYBRID 2017 02/09/2026 07:35:03
72976901 יונדאי קוריאה הדרומית SANTA FE 2019 02/09/2026 07:35:03
6360058 סוזוקי הונגריה SX4 CROSSOVER 2014 02/09/2026 07:35:02
4026058 סוזוקי הונגריה SX4 2014 02/09/2026 07:35:01
2637413 סאנגיונג קוריאה הדרומית RODIUS 2007 02/09/2026 07:35:01
36871504 מ.ג סין HS 2026 02/09/2026 07:35:00
77780803 יונדאי קוריאה הדרומית KONA HYBRID 2024 02/09/2026 07:35:00
1850038 פולקסווגן ספרד POLO 2016 02/09/2026 07:34:59
13939704 דאצ'יה רומניה LOGAN 2025 02/09/2026 07:34:58
82288002 טויוטה תאילנד HILUX 2022 02/09/2026 07:34:58
2630061 טויוטה יפן LEXUS RX 350 2007 02/09/2026 07:34:57
52201603 בי ווי די סין ATTO 3 2023 02/09/2026 07:34:56
1034987 הונדה יפן JAZZ 2017 02/09/2026 07:34:56
22263804 ב מ וו גרמניה IX2 EDRIVE20 2025 02/09/2026 07:34:53
17772102 סקודה צ'כיה KODIAQ 2020 02/09/2026 07:34:52
4234028 הונדה יפן JAZZ 2016 02/09/2026 07:34:52
36701602 פורד תורכיה TRANSIT 2020 02/09/2026 07:34:51
26413502 סאן יאנג טיואן - 2020 02/09/2026 07:34:49
1570032 יונדאי קוריאה הדרומית IX35 2015 02/09/2026 07:34:48
19626603 יונדאי צ'כיה TUCSON 2023 02/09/2026 07:34:47
6692985 קיה קוריאה הדרומית CARNIVAL 2017 02/09/2026 07:34:46
וואטסאפ